sensor_id;sensor_type;location;lat;lon;timestamp;pressure;altitude;pressure_sealevel;temperature;humidity
57000;BME280;42891;50.006;21.964;2023-09-30T00:01:37;50928.56;;;-146.02;68.33
57000;BME280;42891;50.006;21.964;2023-09-30T00:05:38;50930.56;;;-146.02;68.09
57000;BME280;42891;50.006;21.964;2023-09-30T00:09:39;50914.53;;;-146.02;68.03
57000;BME280;42891;50.006;21.964;2023-09-30T00:13:40;50936.56;;;-146.02;68.31
57000;BME280;42891;50.006;21.964;2023-09-30T00:17:40;50902.50;;;-146.02;68.13
57000;BME280;42891;50.006;21.964;2023-09-30T00:21:40;50904.50;;;-146.02;68.23
57000;BME280;42891;50.006;21.964;2023-09-30T00:25:41;50918.53;;;-146.02;68.04
57000;BME280;42891;50.006;21.964;2023-09-30T00:29:42;50914.53;;;-146.02;67.67
57000;BME280;42891;50.006;21.964;2023-09-30T00:33:42;50912.53;;;-146.02;67.93
57000;BME280;42891;50.006;21.964;2023-09-30T00:37:42;50880.47;;;-146.02;67.54
57000;BME280;42891;50.006;21.964;2023-09-30T00:41:43;50854.41;;;-146.02;67.98
57000;BME280;42891;50.006;21.964;2023-09-30T00:45:43;50876.44;;;-146.02;67.92
57000;BME280;42891;50.006;21.964;2023-09-30T00:49:44;50896.50;;;-146.02;68.09
57000;BME280;42891;50.006;21.964;2023-09-30T00:53:45;50896.50;;;-146.02;68.29
57000;BME280;42891;50.006;21.964;2023-09-30T00:57:45;50886.47;;;-146.02;68.57
57000;BME280;42891;50.006;21.964;2023-09-30T01:01:45;50892.47;;;-146.02;68.60
57000;BME280;42891;50.006;21.964;2023-09-30T01:05:46;50908.50;;;-146.02;68.93
57000;BME280;42891;50.006;21.964;2023-09-30T01:09:48;50922.53;;;-146.02;68.87
57000;BME280;42891;50.006;21.964;2023-09-30T01:13:48;50948.59;;;-146.02;68.95
57000;BME280;42891;50.006;21.964;2023-09-30T01:17:49;50892.47;;;-146.02;68.86
57000;BME280;42891;50.006;21.964;2023-09-30T01:21:53;50938.56;;;-146.02;69.13
57000;BME280;42891;50.006;21.964;2023-09-30T01:25:56;50912.53;;;-146.02;69.33
57000;BME280;42891;50.006;21.964;2023-09-30T01:29:57;50904.50;;;-146.02;69.38
57000;BME280;42891;50.006;21.964;2023-09-30T01:33:58;50922.53;;;-146.02;69.52
57000;BME280;42891;50.006;21.964;2023-09-30T01:37:59;50952.59;;;-146.02;69.25
57000;BME280;42891;50.006;21.964;2023-09-30T01:41:59;50912.53;;;-146.02;69.14
57000;BME280;42891;50.006;21.964;2023-09-30T01:46:00;50884.47;;;-146.02;68.75
57000;BME280;42891;50.006;21.964;2023-09-30T01:50:00;50896.50;;;-146.02;68.84
57000;BME280;42891;50.006;21.964;2023-09-30T01:54:00;50894.50;;;-146.02;69.17
57000;BME280;42891;50.006;21.964;2023-09-30T01:58:01;50914.53;;;-146.02;68.92
57000;BME280;42891;50.006;21.964;2023-09-30T02:02:01;50892.47;;;-146.02;68.92
57000;BME280;42891;50.006;21.964;2023-09-30T02:06:02;50910.53;;;-146.02;69.55
57000;BME280;42891;50.006;21.964;2023-09-30T02:10:03;50934.56;;;-146.02;69.69
57000;BME280;42891;50.006;21.964;2023-09-30T02:14:04;50924.53;;;-146.02;69.68
57000;BME280;42891;50.006;21.964;2023-09-30T02:18:07;50916.53;;;-146.02;69.62
57000;BME280;42891;50.006;21.964;2023-09-30T02:22:08;50942.56;;;-146.02;69.74
57000;BME280;42891;50.006;21.964;2023-09-30T02:26:08;50918.53;;;-146.02;69.99
57000;BME280;42891;50.006;21.964;2023-09-30T02:30:09;50904.50;;;-146.02;69.55
57000;BME280;42891;50.006;21.964;2023-09-30T02:34:14;50914.53;;;-146.02;69.55
57000;BME280;42891;50.006;21.964;2023-09-30T02:38:15;50922.53;;;-146.02;69.46
57000;BME280;42891;50.006;21.964;2023-09-30T02:42:17;50950.59;;;-146.02;69.73
57000;BME280;42891;50.006;21.964;2023-09-30T02:46:17;50956.59;;;-146.02;69.70
57000;BME280;42891;50.006;21.964;2023-09-30T02:50:18;50946.59;;;-146.02;69.71
57000;BME280;42891;50.006;21.964;2023-09-30T02:54:18;50930.56;;;-146.02;69.82
57000;BME280;42891;50.006;21.964;2023-09-30T02:58:18;50928.56;;;-146.02;70.19
57000;BME280;42891;50.006;21.964;2023-09-30T03:02:19;50916.53;;;-146.02;69.68
57000;BME280;42891;50.006;21.964;2023-09-30T03:06:21;50928.56;;;-146.02;70.07
57000;BME280;42891;50.006;21.964;2023-09-30T03:10:21;50922.53;;;-146.02;69.90
57000;BME280;42891;50.006;21.964;2023-09-30T03:14:23;50920.53;;;-146.02;70.23
57000;BME280;42891;50.006;21.964;2023-09-30T03:18:24;50944.59;;;-146.02;70.46
57000;BME280;42891;50.006;21.964;2023-09-30T03:22:26;50978.66;;;-146.02;70.23
57000;BME280;42891;50.006;21.964;2023-09-30T03:26:28;50936.56;;;-146.02;70.29
57000;BME280;42891;50.006;21.964;2023-09-30T03:30:29;50930.56;;;-146.02;70.54
57000;BME280;42891;50.006;21.964;2023-09-30T03:34:31;50944.59;;;-146.02;70.50
57000;BME280;42891;50.006;21.964;2023-09-30T03:38:31;50930.56;;;-146.02;70.45
57000;BME280;42891;50.006;21.964;2023-09-30T03:42:32;50936.56;;;-146.02;70.23
57000;BME280;42891;50.006;21.964;2023-09-30T03:46:32;50948.59;;;-146.02;70.75
57000;BME280;42891;50.006;21.964;2023-09-30T03:50:33;50950.59;;;-146.02;70.64
57000;BME280;42891;50.006;21.964;2023-09-30T03:54:34;50956.59;;;-146.02;70.97
57000;BME280;42891;50.006;21.964;2023-09-30T03:58:34;50952.59;;;-146.02;70.42
57000;BME280;42891;50.006;21.964;2023-09-30T04:02:36;50936.56;;;-146.02;71.02
57000;BME280;42891;50.006;21.964;2023-09-30T04:06:37;50942.56;;;-146.02;70.85
57000;BME280;42891;50.006;21.964;2023-09-30T04:10:40;50932.56;;;-146.02;70.63
57000;BME280;42891;50.006;21.964;2023-09-30T04:14:40;50964.63;;;-146.02;70.77
57000;BME280;42891;50.006;21.964;2023-09-30T04:18:41;50962.63;;;-146.02;70.97
57000;BME280;42891;50.006;21.964;2023-09-30T04:22:42;50958.59;;;-146.02;71.13
57000;BME280;42891;50.006;21.964;2023-09-30T04:26:46;50952.59;;;-146.02;71.27
57000;BME280;42891;50.006;21.964;2023-09-30T04:30:47;50932.56;;;-146.02;71.24
57000;BME280;42891;50.006;21.964;2023-09-30T04:34:51;50946.59;;;-146.02;71.52
57000;BME280;42891;50.006;21.964;2023-09-30T04:38:51;50950.59;;;-146.02;71.63
57000;BME280;42891;50.006;21.964;2023-09-30T04:42:51;50940.56;;;-146.02;71.40
57000;BME280;42891;50.006;21.964;2023-09-30T04:46:58;50926.53;;;-146.02;71.27
57000;BME280;42891;50.006;21.964;2023-09-30T04:50:59;50936.56;;;-146.02;70.89
57000;BME280;42891;50.006;21.964;2023-09-30T04:55:00;50932.56;;;-146.02;70.98
57000;BME280;42891;50.006;21.964;2023-09-30T04:59:01;50974.63;;;-146.02;71.26
57000;BME280;42891;50.006;21.964;2023-09-30T05:03:02;50962.63;;;-146.02;71.54
57000;BME280;42891;50.006;21.964;2023-09-30T05:07:02;50898.50;;;-146.02;71.85
57000;BME280;42891;50.006;21.964;2023-09-30T05:11:03;50974.63;;;-146.02;72.23
57000;BME280;42891;50.006;21.964;2023-09-30T05:15:05;50940.56;;;-146.02;72.59
57000;BME280;42891;50.006;21.964;2023-09-30T05:19:08;50958.59;;;-146.02;72.18
57000;BME280;42891;50.006;21.964;2023-09-30T05:23:08;50962.63;;;-146.02;72.53
57000;BME280;42891;50.006;21.964;2023-09-30T05:27:08;50990.66;;;-146.02;72.86
57000;BME280;42891;50.006;21.964;2023-09-30T05:31:09;50948.59;;;-146.02;72.25
57000;BME280;42891;50.006;21.964;2023-09-30T05:35:10;50928.56;;;-146.02;72.23
57000;BME280;42891;50.006;21.964;2023-09-30T05:39:13;50960.59;;;-146.02;72.33
57000;BME280;42891;50.006;21.964;2023-09-30T05:43:18;50918.53;;;-146.02;72.25
57000;BME280;42891;50.006;21.964;2023-09-30T05:47:19;50944.59;;;-146.02;72.35
57000;BME280;42891;50.006;21.964;2023-09-30T05:51:19;50966.63;;;-146.02;72.71
57000;BME280;42891;50.006;21.964;2023-09-30T05:55:20;50976.63;;;-146.02;72.29
57000;BME280;42891;50.006;21.964;2023-09-30T05:59:22;50932.56;;;-146.02;72.03
57000;BME280;42891;50.006;21.964;2023-09-30T06:03:25;50936.56;;;-146.02;72.38
57000;BME280;42891;50.006;21.964;2023-09-30T06:07:25;50922.53;;;-146.02;72.40
57000;BME280;42891;50.006;21.964;2023-09-30T06:11:26;50928.56;;;-146.02;72.45
57000;BME280;42891;50.006;21.964;2023-09-30T06:15:28;50964.63;;;-146.02;72.56
57000;BME280;42891;50.006;21.964;2023-09-30T06:19:28;50928.56;;;-146.02;73.15
57000;BME280;42891;50.006;21.964;2023-09-30T06:23:29;50948.59;;;-146.02;73.53
57000;BME280;42891;50.006;21.964;2023-09-30T06:27:30;50934.56;;;-146.02;72.93
57000;BME280;42891;50.006;21.964;2023-09-30T06:31:30;50906.50;;;-146.02;72.64
57000;BME280;42891;50.006;21.964;2023-09-30T06:35:30;50938.56;;;-146.02;71.88
57000;BME280;42891;50.006;21.964;2023-09-30T06:39:34;50914.53;;;-146.02;71.73
57000;BME280;42891;50.006;21.964;2023-09-30T06:43:35;50946.59;;;-146.02;70.91
57000;BME280;42891;50.006;21.964;2023-09-30T06:47:36;50926.53;;;-146.02;69.68
57000;BME280;42891;50.006;21.964;2023-09-30T06:51:37;50914.53;;;-146.02;69.70
57000;BME280;42891;50.006;21.964;2023-09-30T06:55:40;50944.59;;;-146.02;69.06
57000;BME280;42891;50.006;21.964;2023-09-30T06:59:40;50916.53;;;-146.02;69.73
57000;BME280;42891;50.006;21.964;2023-09-30T07:03:41;50938.56;;;-146.02;69.14
57000;BME280;42891;50.006;21.964;2023-09-30T07:07:42;50924.53;;;-146.02;67.88
57000;BME280;42891;50.006;21.964;2023-09-30T07:11:45;50910.53;;;-146.02;67.72
57000;BME280;42891;50.006;21.964;2023-09-30T07:15:46;50898.50;;;-146.02;68.34
57000;BME280;42891;50.006;21.964;2023-09-30T07:19:46;50880.47;;;-146.02;67.89
57000;BME280;42891;50.006;21.964;2023-09-30T07:23:48;50916.53;;;-146.02;66.24
57000;BME280;42891;50.006;21.964;2023-09-30T07:27:49;50906.50;;;-146.02;68.19
57000;BME280;42891;50.006;21.964;2023-09-30T07:31:49;50908.50;;;-146.02;68.36
57000;BME280;42891;50.006;21.964;2023-09-30T07:35:51;50862.44;;;-146.02;67.13
57000;BME280;42891;50.006;21.964;2023-09-30T07:39:52;50902.50;;;-146.02;66.57
57000;BME280;42891;50.006;21.964;2023-09-30T07:43:52;50902.50;;;-146.02;65.41
57000;BME280;42891;50.006;21.964;2023-09-30T07:47:52;50906.50;;;-146.02;64.73
57000;BME280;42891;50.006;21.964;2023-09-30T07:51:53;50912.53;;;-146.02;64.85
57000;BME280;42891;50.006;21.964;2023-09-30T07:55:53;50920.53;;;-146.02;64.77
57000;BME280;42891;50.006;21.964;2023-09-30T07:59:54;50906.50;;;-146.02;65.40
57000;BME280;42891;50.006;21.964;2023-09-30T08:03:55;50920.53;;;-146.02;64.19
57000;BME280;42891;50.006;21.964;2023-09-30T08:07:56;50894.50;;;-146.02;62.80
57000;BME280;42891;50.006;21.964;2023-09-30T08:11:56;50880.47;;;-146.02;62.33
57000;BME280;42891;50.006;21.964;2023-09-30T08:15:57;50876.44;;;-146.02;62.52
57000;BME280;42891;50.006;21.964;2023-09-30T08:19:57;50882.47;;;-146.02;61.32
57000;BME280;42891;50.006;21.964;2023-09-30T08:23:58;50880.47;;;-146.02;61.75
57000;BME280;42891;50.006;21.964;2023-09-30T08:27:59;50862.44;;;-146.02;59.75
57000;BME280;42891;50.006;21.964;2023-09-30T08:32:00;50876.44;;;-146.02;61.77
57000;BME280;42891;50.006;21.964;2023-09-30T08:36:04;50870.44;;;-146.02;60.98
57000;BME280;42891;50.006;21.964;2023-09-30T08:40:08;50864.44;;;-146.02;60.56
57000;BME280;42891;50.006;21.964;2023-09-30T08:44:12;50888.47;;;-146.02;60.26
57000;BME280;42891;50.006;21.964;2023-09-30T08:48:13;50844.41;;;-146.02;59.79
57000;BME280;42891;50.006;21.964;2023-09-30T08:52:14;50874.44;;;-146.02;58.71
57000;BME280;42891;50.006;21.964;2023-09-30T08:56:15;50896.50;;;-146.02;58.10
57000;BME280;42891;50.006;21.964;2023-09-30T09:00:16;50862.44;;;-146.02;58.20
57000;BME280;42891;50.006;21.964;2023-09-30T09:04:17;50842.38;;;-146.02;58.27
57000;BME280;42891;50.006;21.964;2023-09-30T09:08:17;50852.41;;;-146.02;57.97
57000;BME280;42891;50.006;21.964;2023-09-30T09:12:23;50856.41;;;-146.02;58.10
57000;BME280;42891;50.006;21.964;2023-09-30T09:16:24;50858.41;;;-146.02;58.35
57000;BME280;42891;50.006;21.964;2023-09-30T09:20:25;50844.41;;;-146.02;57.23
57000;BME280;42891;50.006;21.964;2023-09-30T09:24:31;50848.41;;;-146.02;56.77
57000;BME280;42891;50.006;21.964;2023-09-30T09:28:35;50854.41;;;-146.02;57.66
57000;BME280;42891;50.006;21.964;2023-09-30T09:32:37;50860.44;;;-146.02;58.99
57000;BME280;42891;50.006;21.964;2023-09-30T09:36:41;50888.47;;;-146.02;58.68
57000;BME280;42891;50.006;21.964;2023-09-30T09:40:43;50876.44;;;-146.02;59.32
57000;BME280;42891;50.006;21.964;2023-09-30T09:44:44;50836.38;;;-146.02;60.06
57000;BME280;42891;50.006;21.964;2023-09-30T09:48:46;50898.50;;;-146.02;60.38
57000;BME280;42891;50.006;21.964;2023-09-30T09:52:53;50860.44;;;-146.02;60.52
57000;BME280;42891;50.006;21.964;2023-09-30T09:56:56;50824.34;;;-146.02;60.84
57000;BME280;42891;50.006;21.964;2023-09-30T10:01:00;50870.44;;;-146.02;61.62
57000;BME280;42891;50.006;21.964;2023-09-30T10:05:02;50886.47;;;-146.02;61.97
57000;BME280;42891;50.006;21.964;2023-09-30T10:09:05;50912.53;;;-146.02;61.68
57000;BME280;42891;50.006;21.964;2023-09-30T10:13:07;50872.44;;;-146.02;61.04
57000;BME280;42891;50.006;21.964;2023-09-30T10:17:08;50888.47;;;-146.02;60.96
57000;BME280;42891;50.006;21.964;2023-09-30T10:21:08;50870.44;;;-146.02;61.96
57000;BME280;42891;50.006;21.964;2023-09-30T10:25:35;50860.44;;;-146.02;61.56
57000;BME280;42891;50.006;21.964;2023-09-30T10:29:42;50848.41;;;-146.02;62.40
57000;BME280;42891;50.006;21.964;2023-09-30T10:42:44;50868.44;;;-146.02;63.28
57000;BME280;42891;50.006;21.964;2023-09-30T10:46:45;50852.41;;;-146.02;64.71
57000;BME280;42891;50.006;21.964;2023-09-30T10:50:53;50866.44;;;-146.02;65.34
57000;BME280;42891;50.006;21.964;2023-09-30T10:55:03;50854.41;;;-146.02;66.62
57000;BME280;42891;50.006;21.964;2023-09-30T10:59:05;50860.44;;;-146.02;68.61
57000;BME280;42891;50.006;21.964;2023-09-30T11:03:05;50878.47;;;-146.02;70.02
57000;BME280;42891;50.006;21.964;2023-09-30T11:07:06;50864.44;;;-146.02;71.06
57000;BME280;42891;50.006;21.964;2023-09-30T11:11:07;50908.50;;;-146.02;72.24
57000;BME280;42891;50.006;21.964;2023-09-30T11:15:08;50902.50;;;-146.02;72.20
57000;BME280;42891;50.006;21.964;2023-09-30T11:19:11;50878.47;;;-146.02;73.88
57000;BME280;42891;50.006;21.964;2023-09-30T11:23:11;50886.47;;;-146.02;74.16
57000;BME280;42891;50.006;21.964;2023-09-30T11:27:12;50876.44;;;-146.02;75.93
57000;BME280;42891;50.006;21.964;2023-09-30T11:31:13;50900.50;;;-146.02;76.18
57000;BME280;42891;50.006;21.964;2023-09-30T11:35:23;50886.47;;;-146.02;75.90
57000;BME280;42891;50.006;21.964;2023-09-30T11:39:25;50884.47;;;-146.02;76.25
57000;BME280;42891;50.006;21.964;2023-09-30T11:43:26;50874.44;;;-146.02;76.78
57000;BME280;42891;50.006;21.964;2023-09-30T11:47:29;50912.53;;;-146.02;77.37
57000;BME280;42891;50.006;21.964;2023-09-30T11:51:43;50900.50;;;-146.02;76.83
57000;BME280;42891;50.006;21.964;2023-09-30T11:55:47;50898.50;;;-146.02;76.59
57000;BME280;42891;50.006;21.964;2023-09-30T11:59:47;50892.47;;;-146.02;76.94
57000;BME280;42891;50.006;21.964;2023-09-30T12:03:48;50882.47;;;-146.02;77.06
57000;BME280;42891;50.006;21.964;2023-09-30T12:07:49;50880.47;;;-146.02;77.78
57000;BME280;42891;50.006;21.964;2023-09-30T12:11:49;50854.41;;;-146.02;78.12
57000;BME280;42891;50.006;21.964;2023-09-30T12:15:51;50896.50;;;-146.02;78.93
57000;BME280;42891;50.006;21.964;2023-09-30T12:19:53;50886.47;;;-146.02;77.76
57000;BME280;42891;50.006;21.964;2023-09-30T12:23:53;50886.47;;;-146.02;78.62
57000;BME280;42891;50.006;21.964;2023-09-30T12:27:53;50884.47;;;-146.02;78.39
57000;BME280;42891;50.006;21.964;2023-09-30T12:31:55;50876.44;;;-146.02;78.60
57000;BME280;42891;50.006;21.964;2023-09-30T12:35:56;50890.47;;;-146.02;79.26
57000;BME280;42891;50.006;21.964;2023-09-30T12:39:58;50936.56;;;-146.02;80.72
57000;BME280;42891;50.006;21.964;2023-09-30T12:43:58;50886.47;;;-146.02;80.83
57000;BME280;42891;50.006;21.964;2023-09-30T12:47:58;50920.53;;;-146.02;81.25
57000;BME280;42891;50.006;21.964;2023-09-30T12:51:59;50928.56;;;-146.02;82.50
57000;BME280;42891;50.006;21.964;2023-09-30T12:56:01;50930.56;;;-146.02;82.53
57000;BME280;42891;50.006;21.964;2023-09-30T13:00:01;50890.47;;;-146.02;82.98
57000;BME280;42891;50.006;21.964;2023-09-30T13:04:41;50890.47;;;-146.02;83.20
57000;BME280;42891;50.006;21.964;2023-09-30T13:08:45;50884.47;;;-146.02;83.81
57000;BME280;42891;50.006;21.964;2023-09-30T13:12:45;50944.59;;;-146.02;83.70
57000;BME280;42891;50.006;21.964;2023-09-30T13:16:46;50888.47;;;-146.02;83.52
57000;BME280;42891;50.006;21.964;2023-09-30T13:20:46;50928.56;;;-146.02;83.99
57000;BME280;42891;50.006;21.964;2023-09-30T13:24:46;50920.53;;;-146.02;84.25
57000;BME280;42891;50.006;21.964;2023-09-30T13:28:47;50914.53;;;-146.02;84.62
57000;BME280;42891;50.006;21.964;2023-09-30T13:32:47;50920.53;;;-146.02;84.80
57000;BME280;42891;50.006;21.964;2023-09-30T13:36:48;50890.47;;;-146.02;84.67
57000;BME280;42891;50.006;21.964;2023-09-30T13:40:48;50910.53;;;-146.02;84.49
57000;BME280;42891;50.006;21.964;2023-09-30T13:44:49;50918.53;;;-146.02;84.80
57000;BME280;42891;50.006;21.964;2023-09-30T13:48:49;50888.47;;;-146.02;84.78
57000;BME280;42891;50.006;21.964;2023-09-30T13:52:52;50934.56;;;-146.02;84.95
57000;BME280;42891;50.006;21.964;2023-09-30T13:56:53;50882.47;;;-146.02;85.17
57000;BME280;42891;50.006;21.964;2023-09-30T14:00:53;50900.50;;;-146.02;85.03
57000;BME280;42891;50.006;21.964;2023-09-30T14:04:53;50928.56;;;-146.02;84.71
57000;BME280;42891;50.006;21.964;2023-09-30T14:08:53;50902.50;;;-146.02;85.68
57000;BME280;42891;50.006;21.964;2023-09-30T14:12:54;50904.50;;;-146.02;85.84
57000;BME280;42891;50.006;21.964;2023-09-30T14:16:54;50912.53;;;-146.02;86.22
57000;BME280;42891;50.006;21.964;2023-09-30T14:20:55;50934.56;;;-146.02;86.76
57000;BME280;42891;50.006;21.964;2023-09-30T14:24:55;50956.59;;;-146.02;87.05
57000;BME280;42891;50.006;21.964;2023-09-30T14:28:56;50886.47;;;-146.02;87.82
57000;BME280;42891;50.006;21.964;2023-09-30T14:32:56;50934.56;;;-146.02;87.96
57000;BME280;42891;50.006;21.964;2023-09-30T14:36:56;50872.44;;;-146.02;87.88
57000;BME280;42891;50.006;21.964;2023-09-30T14:40:57;50904.50;;;-146.02;88.69
57000;BME280;42891;50.006;21.964;2023-09-30T14:44:57;50960.59;;;-146.02;88.39
57000;BME280;42891;50.006;21.964;2023-09-30T14:48:57;50928.56;;;-146.02;88.49
57000;BME280;42891;50.006;21.964;2023-09-30T14:52:58;50912.53;;;-146.02;88.72
57000;BME280;42891;50.006;21.964;2023-09-30T14:56:58;50916.53;;;-146.02;88.69
57000;BME280;42891;50.006;21.964;2023-09-30T15:00:58;50884.47;;;-146.02;88.95
57000;BME280;42891;50.006;21.964;2023-09-30T15:04:59;50928.56;;;-146.02;88.93
57000;BME280;42891;50.006;21.964;2023-09-30T15:09:03;50898.50;;;-146.02;89.47
57000;BME280;42891;50.006;21.964;2023-09-30T15:13:04;50948.59;;;-146.02;89.60
57000;BME280;42891;50.006;21.964;2023-09-30T15:17:05;50928.56;;;-146.02;89.39
57000;BME280;42891;50.006;21.964;2023-09-30T15:21:05;50908.50;;;-146.02;89.88
57000;BME280;42891;50.006;21.964;2023-09-30T15:25:06;50936.56;;;-146.02;89.85
57000;BME280;42891;50.006;21.964;2023-09-30T15:29:06;50926.53;;;-146.02;89.93
57000;BME280;42891;50.006;21.964;2023-09-30T15:33:07;50958.59;;;-146.02;90.61
57000;BME280;42891;50.006;21.964;2023-09-30T15:37:08;50986.66;;;-146.02;91.32
57000;BME280;42891;50.006;21.964;2023-09-30T15:41:11;50946.59;;;-146.02;90.76
57000;BME280;42891;50.006;21.964;2023-09-30T15:45:12;50938.56;;;-146.02;90.92
57000;BME280;42891;50.006;21.964;2023-09-30T15:49:12;50944.59;;;-146.02;91.18
57000;BME280;42891;50.006;21.964;2023-09-30T15:53:13;50932.56;;;-146.02;90.99
57000;BME280;42891;50.006;21.964;2023-09-30T15:57:14;50930.56;;;-146.02;91.38
57000;BME280;42891;50.006;21.964;2023-09-30T16:01:14;50924.53;;;-146.02;90.88
57000;BME280;42891;50.006;21.964;2023-09-30T16:05:15;50896.50;;;-146.02;90.27
57000;BME280;42891;50.006;21.964;2023-09-30T16:09:15;50920.53;;;-146.02;90.86
57000;BME280;42891;50.006;21.964;2023-09-30T16:13:16;50948.59;;;-146.02;90.49
57000;BME280;42891;50.006;21.964;2023-09-30T16:17:17;50954.59;;;-146.02;90.86
57000;BME280;42891;50.006;21.964;2023-09-30T16:21:19;50940.56;;;-146.02;90.85
57000;BME280;42891;50.006;21.964;2023-09-30T16:25:21;50956.59;;;-146.02;90.79
57000;BME280;42891;50.006;21.964;2023-09-30T16:29:24;50940.56;;;-146.02;90.79
57000;BME280;42891;50.006;21.964;2023-09-30T16:33:25;50968.63;;;-146.02;90.85
57000;BME280;42891;50.006;21.964;2023-09-30T16:37:26;50940.56;;;-146.02;91.08
57000;BME280;42891;50.006;21.964;2023-09-30T16:41:26;50948.59;;;-146.02;90.82
57000;BME280;42891;50.006;21.964;2023-09-30T16:45:26;50944.59;;;-146.02;90.64
57000;BME280;42891;50.006;21.964;2023-09-30T16:49:27;50914.53;;;-146.02;90.40
57000;BME280;42891;50.006;21.964;2023-09-30T16:53:27;50968.63;;;-146.02;90.77
57000;BME280;42891;50.006;21.964;2023-09-30T16:57:28;50934.56;;;-146.02;90.67
57000;BME280;42891;50.006;21.964;2023-09-30T17:01:29;50958.59;;;-146.02;90.89
57000;BME280;42891;50.006;21.964;2023-09-30T17:05:30;50960.59;;;-146.02;90.86
57000;BME280;42891;50.006;21.964;2023-09-30T17:09:31;50952.59;;;-146.02;90.72
57000;BME280;42891;50.006;21.964;2023-09-30T17:13:32;50952.59;;;-146.02;90.70
57000;BME280;42891;50.006;21.964;2023-09-30T17:17:32;50976.63;;;-146.02;90.51
57000;BME280;42891;50.006;21.964;2023-09-30T17:21:33;51004.69;;;-146.02;90.45
57000;BME280;42891;50.006;21.964;2023-09-30T17:25:33;50948.59;;;-146.02;90.38
57000;BME280;42891;50.006;21.964;2023-09-30T17:29:33;50966.63;;;-146.02;90.25
57000;BME280;42891;50.006;21.964;2023-09-30T17:33:34;50950.59;;;-146.02;90.22
57000;BME280;42891;50.006;21.964;2023-09-30T17:37:35;50946.59;;;-146.02;89.98
57000;BME280;42891;50.006;21.964;2023-09-30T17:41:35;50964.63;;;-146.02;88.99
57000;BME280;42891;50.006;21.964;2023-09-30T17:45:36;50940.56;;;-146.02;88.61
57000;BME280;42891;50.006;21.964;2023-09-30T17:49:37;50986.66;;;-146.02;87.91
57000;BME280;42891;50.006;21.964;2023-09-30T17:53:38;50968.63;;;-146.02;87.29
57000;BME280;42891;50.006;21.964;2023-09-30T17:57:38;50946.59;;;-146.02;87.67
57000;BME280;42891;50.006;21.964;2023-09-30T18:01:39;50986.66;;;-146.02;87.16
57000;BME280;42891;50.006;21.964;2023-09-30T18:05:39;50940.56;;;-146.02;86.82
57000;BME280;42891;50.006;21.964;2023-09-30T18:09:39;50954.59;;;-146.02;86.41
57000;BME280;42891;50.006;21.964;2023-09-30T18:13:40;50992.66;;;-146.02;85.66
57000;BME280;42891;50.006;21.964;2023-09-30T18:17:40;50964.63;;;-146.02;85.00
57000;BME280;42891;50.006;21.964;2023-09-30T18:21:41;50962.63;;;-146.02;83.83
57000;BME280;42891;50.006;21.964;2023-09-30T18:25:42;50914.53;;;-146.02;83.00
57000;BME280;42891;50.006;21.964;2023-09-30T18:29:44;50960.59;;;-146.02;82.96
57000;BME280;42891;50.006;21.964;2023-09-30T18:33:45;50974.63;;;-146.02;82.85
57000;BME280;42891;50.006;21.964;2023-09-30T18:37:45;50966.63;;;-146.02;83.16
57000;BME280;42891;50.006;21.964;2023-09-30T18:41:46;50968.63;;;-146.02;82.76
57000;BME280;42891;50.006;21.964;2023-09-30T18:45:46;50956.59;;;-146.02;82.15
57000;BME280;42891;50.006;21.964;2023-09-30T18:49:50;50944.59;;;-146.02;81.88
57000;BME280;42891;50.006;21.964;2023-09-30T18:53:50;50944.59;;;-146.02;81.58
57000;BME280;42891;50.006;21.964;2023-09-30T18:57:50;50960.59;;;-146.02;81.02
57000;BME280;42891;50.006;21.964;2023-09-30T19:01:51;50968.63;;;-146.02;81.46
57000;BME280;42891;50.006;21.964;2023-09-30T19:05:51;50944.59;;;-146.02;80.47
57000;BME280;42891;50.006;21.964;2023-09-30T19:09:54;50984.66;;;-146.02;80.50
57000;BME280;42891;50.006;21.964;2023-09-30T19:13:54;50988.66;;;-146.02;79.76
57000;BME280;42891;50.006;21.964;2023-09-30T19:17:54;50970.63;;;-146.02;79.96
57000;BME280;42891;50.006;21.964;2023-09-30T19:21:55;50956.59;;;-146.02;78.54
57000;BME280;42891;50.006;21.964;2023-09-30T19:25:55;50944.59;;;-146.02;79.06
57000;BME280;42891;50.006;21.964;2023-09-30T19:29:56;50964.63;;;-146.02;78.66
57000;BME280;42891;50.006;21.964;2023-09-30T19:33:57;50944.59;;;-146.02;78.18
57000;BME280;42891;50.006;21.964;2023-09-30T19:37:57;50950.59;;;-146.02;78.02
57000;BME280;42891;50.006;21.964;2023-09-30T19:41:58;50996.69;;;-146.02;78.03
57000;BME280;42891;50.006;21.964;2023-09-30T19:46:00;50970.63;;;-146.02;78.46
57000;BME280;42891;50.006;21.964;2023-09-30T19:50:00;50926.53;;;-146.02;78.78
57000;BME280;42891;50.006;21.964;2023-09-30T19:54:00;51008.69;;;-146.02;79.12
57000;BME280;42891;50.006;21.964;2023-09-30T19:58:01;50958.59;;;-146.02;79.85
57000;BME280;42891;50.006;21.964;2023-09-30T20:02:01;50964.63;;;-146.02;81.27
57000;BME280;42891;50.006;21.964;2023-09-30T20:06:16;50966.63;;;-146.02;81.32
57000;BME280;42891;50.006;21.964;2023-09-30T20:10:17;50976.63;;;-146.02;81.10
57000;BME280;42891;50.006;21.964;2023-09-30T20:14:17;50984.66;;;-146.02;81.71
57000;BME280;42891;50.006;21.964;2023-09-30T20:18:18;50996.69;;;-146.02;80.15
57000;BME280;42891;50.006;21.964;2023-09-30T20:22:18;50974.63;;;-146.02;79.70
57000;BME280;42891;50.006;21.964;2023-09-30T20:26:19;51008.69;;;-146.02;79.12
57000;BME280;42891;50.006;21.964;2023-09-30T20:30:24;50990.66;;;-146.02;78.68
57000;BME280;42891;50.006;21.964;2023-09-30T20:34:26;50976.63;;;-146.02;78.19
57000;BME280;42891;50.006;21.964;2023-09-30T20:38:26;50988.66;;;-146.02;77.95